Airfield :
LOGIN :

Register | Disclaimer

   EN    FR    IT 

 










Legend :    VFR   Marginal VFR   IFR   Intensive IFR   Very Intensive IFR
Visi :
Ceiling :
>= 8 km
>= 3000ft
5 to 8 km
1000 to 3000 ft
1500m to 5 km
500 to 1000 ft
800 to 1500m
200 to 500 ft
< 800m
< 200 ft
Symbols :   Thunderstorms  Fog  Heavy snow  Heavy precipitations  Wind > 20 kt
SIGMETs :     Misc.  Thunderstorms  Icing  Turbulence  Mountain Waves  Volcanic Ashes






- Airport Elevation : 614 ft
- IATA code : CRL


EBCI - Charleroi

CURRENT METAR :
  • 020720Z 15007KT 9999 FEW015 04/02 Q0999 NOSIG

EXPIRED METARs :
  • 020650Z 16008KT 9999 FEW015 04/02 Q0999 NOSIG
  • 020620Z 17007KT 130V190 9999 FEW020 04/02 Q0999 NOSIG
  • 020550Z 16008KT 9999 FEW016 04/02 Q0999 NOSIG
  • 020520Z 17009KT 9999 FEW016 SCT020 04/02 Q0999 NOSIG
  • 020450Z 17010KT 9999 FEW016 SCT020 05/01 Q0999 NOSIG
  • 020420Z 18009KT 9999 FEW015 SCT022 04/02 Q0999 NOSIG
  • 012050Z 16017G30KT 9999 FEW008 BKN021 08/04 Q0997 TEMPO BKN012
  • 020350Z 18012KT 140V210 9999 FEW015 SCT026 05/02 Q0998 NOSIG
  • 020320Z 18010KT 9999 FEW010 BKN022 05/02 Q0998 NOSIG
  • 020250Z 18009KT 9999 FEW010 BKN022 05/02 Q0999 NOSIG
  • 020220Z 17010KT 9999 FEW008 BKN016 04/02 Q0999 TEMPO BKN012

TAF TAF EBCI
Valid from the 02 at 06:00 until the 03 at 12:00 UTC


020504Z 0206/0312 17012KT 9999 SCT018 SCT035
PROB30
TEMPO 0209/0215 17015G25KT
PROB40
TEMPO 0219/0303 4000 RA SHRA SCT008 BKN012TCU



MET'MAP, your aeronautical weather chart ! - Copyright ORBIFLY December 2007 - Disclaimer

ORBIFLY MET'MAP TEAM :

Programming & Development : Alexandra Zaïnal
Original concept : Baudouin d'Aumeries
Technical & hardware support : Manuel Goepfert
Assistance : Marc-Olivier Méhu




SOURCES & CREDITS :

   NOAA